sensor_id;sensor_type;location;lat;lon;timestamp;P1;durP1;ratioP1;P2;durP2;ratioP2
53781;SDS011;39692;53.114;7.060;2023-01-20T00:00:25;1.75;;;0.85;;
53781;SDS011;39692;53.114;7.060;2023-01-20T00:02:51;1.55;;;0.95;;
53781;SDS011;39692;53.114;7.060;2023-01-20T00:05:17;2.13;;;1.45;;
53781;SDS011;39692;53.114;7.060;2023-01-20T00:07:44;3.13;;;1.13;;
53781;SDS011;39692;53.114;7.060;2023-01-20T00:10:10;2.17;;;1.40;;
53781;SDS011;39692;53.114;7.060;2023-01-20T00:12:36;1.20;;;0.80;;
53781;SDS011;39692;53.114;7.060;2023-01-20T00:15:02;2.72;;;1.02;;
53781;SDS011;39692;53.114;7.060;2023-01-20T00:17:28;2.60;;;1.15;;
53781;SDS011;39692;53.114;7.060;2023-01-20T00:19:54;3.30;;;1.25;;
53781;SDS011;39692;53.114;7.060;2023-01-20T00:22:20;1.08;;;0.55;;
53781;SDS011;39692;53.114;7.060;2023-01-20T00:24:46;3.83;;;1.48;;
53781;SDS011;39692;53.114;7.060;2023-01-20T00:27:14;5.38;;;1.33;;
53781;SDS011;39692;53.114;7.060;2023-01-20T00:29:40;3.28;;;1.40;;
53781;SDS011;39692;53.114;7.060;2023-01-20T00:32:08;2.85;;;1.38;;
53781;SDS011;39692;53.114;7.060;2023-01-20T00:34:34;2.08;;;0.93;;
53781;SDS011;39692;53.114;7.060;2023-01-20T00:37:00;1.92;;;1.02;;
53781;SDS011;39692;53.114;7.060;2023-01-20T00:39:26;1.60;;;1.00;;
53781;SDS011;39692;53.114;7.060;2023-01-20T00:41:52;3.22;;;1.85;;
53781;SDS011;39692;53.114;7.060;2023-01-20T00:44:18;2.85;;;1.33;;
53781;SDS011;39692;53.114;7.060;2023-01-20T00:46:44;3.45;;;1.50;;
53781;SDS011;39692;53.114;7.060;2023-01-20T00:49:10;1.98;;;1.20;;
53781;SDS011;39692;53.114;7.060;2023-01-20T00:51:37;2.55;;;1.08;;
53781;SDS011;39692;53.114;7.060;2023-01-20T00:54:03;2.97;;;1.63;;
53781;SDS011;39692;53.114;7.060;2023-01-20T00:56:29;5.40;;;1.45;;
53781;SDS011;39692;53.114;7.060;2023-01-20T00:58:55;4.60;;;1.77;;
53781;SDS011;39692;53.114;7.060;2023-01-20T01:01:21;2.53;;;1.70;;
53781;SDS011;39692;53.114;7.060;2023-01-20T01:03:47;2.63;;;1.85;;
53781;SDS011;39692;53.114;7.060;2023-01-20T01:06:15;10.43;;;1.80;;
53781;SDS011;39692;53.114;7.060;2023-01-20T01:08:42;6.47;;;1.92;;
53781;SDS011;39692;53.114;7.060;2023-01-20T01:11:09;3.47;;;1.75;;
53781;SDS011;39692;53.114;7.060;2023-01-20T01:13:36;2.65;;;1.75;;
53781;SDS011;39692;53.114;7.060;2023-01-20T01:16:03;4.78;;;1.45;;
53781;SDS011;39692;53.114;7.060;2023-01-20T01:18:29;3.72;;;1.63;;
53781;SDS011;39692;53.114;7.060;2023-01-20T01:20:55;2.47;;;1.60;;
53781;SDS011;39692;53.114;7.060;2023-01-20T01:23:21;3.40;;;2.33;;
53781;SDS011;39692;53.114;7.060;2023-01-20T01:25:47;4.00;;;2.22;;
53781;SDS011;39692;53.114;7.060;2023-01-20T01:28:14;4.13;;;2.15;;
53781;SDS011;39692;53.114;7.060;2023-01-20T01:30:40;3.53;;;1.48;;
53781;SDS011;39692;53.114;7.060;2023-01-20T01:33:06;3.85;;;2.40;;
53781;SDS011;39692;53.114;7.060;2023-01-20T01:35:32;6.75;;;2.95;;
53781;SDS011;39692;53.114;7.060;2023-01-20T01:37:58;6.25;;;3.15;;
53781;SDS011;39692;53.114;7.060;2023-01-20T01:40:24;7.45;;;3.67;;
53781;SDS011;39692;53.114;7.060;2023-01-20T01:42:50;5.43;;;2.92;;
53781;SDS011;39692;53.114;7.060;2023-01-20T01:45:17;3.47;;;1.73;;
53781;SDS011;39692;53.114;7.060;2023-01-20T01:47:46;6.75;;;2.40;;
53781;SDS011;39692;53.114;7.060;2023-01-20T01:50:16;5.78;;;2.72;;
53781;SDS011;39692;53.114;7.060;2023-01-20T01:52:43;5.88;;;3.30;;
53781;SDS011;39692;53.114;7.060;2023-01-20T01:55:10;9.57;;;2.88;;
53781;SDS011;39692;53.114;7.060;2023-01-20T01:57:36;5.68;;;2.60;;
53781;SDS011;39692;53.114;7.060;2023-01-20T02:00:05;7.13;;;4.50;;
53781;SDS011;39692;53.114;7.060;2023-01-20T02:02:31;5.60;;;3.33;;
53781;SDS011;39692;53.114;7.060;2023-01-20T02:05:00;3.63;;;2.55;;
53781;SDS011;39692;53.114;7.060;2023-01-20T02:07:26;6.88;;;3.58;;
53781;SDS011;39692;53.114;7.060;2023-01-20T02:09:52;6.05;;;2.65;;
53781;SDS011;39692;53.114;7.060;2023-01-20T02:12:18;7.90;;;3.17;;
53781;SDS011;39692;53.114;7.060;2023-01-20T02:14:48;6.75;;;2.88;;
53781;SDS011;39692;53.114;7.060;2023-01-20T02:17:26;5.60;;;3.42;;
53781;SDS011;39692;53.114;7.060;2023-01-20T02:22:53;4.25;;;2.45;;
53781;SDS011;39692;53.114;7.060;2023-01-20T02:33:14;8.43;;;3.47;;
53781;SDS011;39692;53.114;7.060;2023-01-20T02:35:45;5.03;;;2.80;;
53781;SDS011;39692;53.114;7.060;2023-01-20T02:41:12;7.05;;;3.83;;
53781;SDS011;39692;53.114;7.060;2023-01-20T02:43:49;7.13;;;4.05;;
53781;SDS011;39692;53.114;7.060;2023-01-20T02:48:54;6.88;;;3.50;;
53781;SDS011;39692;53.114;7.060;2023-01-20T02:51:27;6.25;;;3.03;;
53781;SDS011;39692;53.114;7.060;2023-01-20T02:54:07;5.63;;;2.97;;
53781;SDS011;39692;53.114;7.060;2023-01-20T02:56:34;8.27;;;5.22;;
53781;SDS011;39692;53.114;7.060;2023-01-20T02:59:03;8.25;;;3.25;;
53781;SDS011;39692;53.114;7.060;2023-01-20T03:01:32;6.65;;;3.20;;
53781;SDS011;39692;53.114;7.060;2023-01-20T03:03:59;9.73;;;4.47;;
53781;SDS011;39692;53.114;7.060;2023-01-20T03:06:27;9.57;;;4.88;;
53781;SDS011;39692;53.114;7.060;2023-01-20T03:08:55;6.80;;;2.97;;
53781;SDS011;39692;53.114;7.060;2023-01-20T03:11:23;7.60;;;3.63;;
53781;SDS011;39692;53.114;7.060;2023-01-20T03:16:19;9.05;;;3.70;;
53781;SDS011;39692;53.114;7.060;2023-01-20T03:18:46;5.65;;;2.58;;
53781;SDS011;39692;53.114;7.060;2023-01-20T03:21:13;7.78;;;3.47;;
53781;SDS011;39692;53.114;7.060;2023-01-20T03:23:40;7.57;;;4.50;;
53781;SDS011;39692;53.114;7.060;2023-01-20T03:26:08;13.23;;;4.85;;
53781;SDS011;39692;53.114;7.060;2023-01-20T03:28:34;9.82;;;5.47;;
53781;SDS011;39692;53.114;7.060;2023-01-20T03:31:00;8.40;;;3.75;;
53781;SDS011;39692;53.114;7.060;2023-01-20T03:33:30;8.60;;;4.75;;
53781;SDS011;39692;53.114;7.060;2023-01-20T03:35:56;7.35;;;3.72;;
53781;SDS011;39692;53.114;7.060;2023-01-20T03:38:22;8.13;;;4.10;;
53781;SDS011;39692;53.114;7.060;2023-01-20T03:41:32;6.50;;;3.78;;
53781;SDS011;39692;53.114;7.060;2023-01-20T03:43:41;10.45;;;3.63;;
53781;SDS011;39692;53.114;7.060;2023-01-20T03:46:18;8.32;;;4.63;;
53781;SDS011;39692;53.114;7.060;2023-01-20T03:53:54;7.75;;;4.88;;
53781;SDS011;39692;53.114;7.060;2023-01-20T03:56:29;6.43;;;3.95;;
53781;SDS011;39692;53.114;7.060;2023-01-20T03:58:57;7.05;;;3.97;;
53781;SDS011;39692;53.114;7.060;2023-01-20T04:01:26;8.65;;;3.97;;
53781;SDS011;39692;53.114;7.060;2023-01-20T04:03:55;9.32;;;4.47;;
53781;SDS011;39692;53.114;7.060;2023-01-20T04:06:22;6.18;;;2.90;;
53781;SDS011;39692;53.114;7.060;2023-01-20T04:08:51;7.78;;;4.22;;
53781;SDS011;39692;53.114;7.060;2023-01-20T04:11:18;10.85;;;4.95;;
53781;SDS011;39692;53.114;7.060;2023-01-20T04:13:44;5.95;;;3.53;;
53781;SDS011;39692;53.114;7.060;2023-01-20T04:16:12;7.07;;;3.25;;
53781;SDS011;39692;53.114;7.060;2023-01-20T04:18:40;9.98;;;5.32;;
53781;SDS011;39692;53.114;7.060;2023-01-20T04:21:07;8.75;;;4.97;;
53781;SDS011;39692;53.114;7.060;2023-01-20T04:23:37;9.80;;;4.93;;
53781;SDS011;39692;53.114;7.060;2023-01-20T04:26:04;7.82;;;4.47;;
53781;SDS011;39692;53.114;7.060;2023-01-20T04:28:30;9.77;;;5.60;;
53781;SDS011;39692;53.114;7.060;2023-01-20T04:30:56;9.32;;;4.97;;
53781;SDS011;39692;53.114;7.060;2023-01-20T04:33:23;13.98;;;6.50;;
53781;SDS011;39692;53.114;7.060;2023-01-20T04:35:49;10.70;;;5.07;;
53781;SDS011;39692;53.114;7.060;2023-01-20T04:38:15;10.35;;;5.53;;
53781;SDS011;39692;53.114;7.060;2023-01-20T04:40:41;11.02;;;5.40;;
53781;SDS011;39692;53.114;7.060;2023-01-20T04:43:07;10.30;;;5.80;;
53781;SDS011;39692;53.114;7.060;2023-01-20T04:45:34;8.20;;;4.90;;
53781;SDS011;39692;53.114;7.060;2023-01-20T04:48:00;10.50;;;5.88;;
53781;SDS011;39692;53.114;7.060;2023-01-20T04:50:26;11.50;;;6.18;;
53781;SDS011;39692;53.114;7.060;2023-01-20T04:52:55;11.82;;;5.40;;
53781;SDS011;39692;53.114;7.060;2023-01-20T04:55:21;12.32;;;5.03;;
53781;SDS011;39692;53.114;7.060;2023-01-20T04:57:47;8.55;;;4.72;;
53781;SDS011;39692;53.114;7.060;2023-01-20T05:00:13;6.70;;;3.85;;
53781;SDS011;39692;53.114;7.060;2023-01-20T05:02:44;12.32;;;5.57;;
53781;SDS011;39692;53.114;7.060;2023-01-20T05:05:10;9.15;;;4.90;;
53781;SDS011;39692;53.114;7.060;2023-01-20T05:07:36;9.80;;;5.28;;
53781;SDS011;39692;53.114;7.060;2023-01-20T05:10:02;10.88;;;5.60;;
53781;SDS011;39692;53.114;7.060;2023-01-20T05:12:28;12.23;;;6.13;;
53781;SDS011;39692;53.114;7.060;2023-01-20T05:14:54;13.50;;;6.60;;
53781;SDS011;39692;53.114;7.060;2023-01-20T05:17:20;10.75;;;6.53;;
53781;SDS011;39692;53.114;7.060;2023-01-20T05:19:46;7.88;;;5.10;;
53781;SDS011;39692;53.114;7.060;2023-01-20T05:22:12;11.73;;;5.97;;
53781;SDS011;39692;53.114;7.060;2023-01-20T05:24:38;8.65;;;5.72;;
53781;SDS011;39692;53.114;7.060;2023-01-20T05:27:04;7.93;;;4.95;;
53781;SDS011;39692;53.114;7.060;2023-01-20T05:29:30;7.68;;;4.55;;
53781;SDS011;39692;53.114;7.060;2023-01-20T05:31:57;10.88;;;5.72;;
53781;SDS011;39692;53.114;7.060;2023-01-20T05:34:23;10.90;;;5.63;;
53781;SDS011;39692;53.114;7.060;2023-01-20T05:36:52;10.40;;;5.30;;
53781;SDS011;39692;53.114;7.060;2023-01-20T05:39:19;9.48;;;5.05;;
53781;SDS011;39692;53.114;7.060;2023-01-20T05:41:45;11.60;;;6.05;;
53781;SDS011;39692;53.114;7.060;2023-01-20T05:44:11;8.18;;;4.10;;
53781;SDS011;39692;53.114;7.060;2023-01-20T05:46:37;11.38;;;5.22;;
53781;SDS011;39692;53.114;7.060;2023-01-20T05:49:03;8.98;;;4.97;;
53781;SDS011;39692;53.114;7.060;2023-01-20T05:51:30;10.32;;;4.13;;
53781;SDS011;39692;53.114;7.060;2023-01-20T05:53:56;10.60;;;4.90;;
53781;SDS011;39692;53.114;7.060;2023-01-20T05:56:22;11.00;;;4.97;;
53781;SDS011;39692;53.114;7.060;2023-01-20T05:58:48;9.45;;;4.53;;
53781;SDS011;39692;53.114;7.060;2023-01-20T06:01:18;9.57;;;4.22;;
53781;SDS011;39692;53.114;7.060;2023-01-20T06:03:44;9.38;;;4.00;;
53781;SDS011;39692;53.114;7.060;2023-01-20T06:06:10;5.00;;;3.13;;
53781;SDS011;39692;53.114;7.060;2023-01-20T06:08:41;6.35;;;2.95;;
53781;SDS011;39692;53.114;7.060;2023-01-20T06:11:07;8.25;;;4.18;;
53781;SDS011;39692;53.114;7.060;2023-01-20T06:13:34;6.03;;;3.22;;
53781;SDS011;39692;53.114;7.060;2023-01-20T06:16:00;8.77;;;3.92;;
53781;SDS011;39692;53.114;7.060;2023-01-20T06:18:30;8.13;;;4.72;;
53781;SDS011;39692;53.114;7.060;2023-01-20T06:20:56;5.88;;;2.92;;
53781;SDS011;39692;53.114;7.060;2023-01-20T06:23:26;15.50;;;4.32;;
53781;SDS011;39692;53.114;7.060;2023-01-20T06:26:06;6.45;;;3.28;;
53781;SDS011;39692;53.114;7.060;2023-01-20T06:28:32;9.70;;;3.85;;
53781;SDS011;39692;53.114;7.060;2023-01-20T06:31:03;7.60;;;4.20;;
53781;SDS011;39692;53.114;7.060;2023-01-20T06:33:30;8.50;;;4.65;;
53781;SDS011;39692;53.114;7.060;2023-01-20T06:35:56;8.00;;;4.00;;
53781;SDS011;39692;53.114;7.060;2023-01-20T06:38:23;7.78;;;4.90;;
53781;SDS011;39692;53.114;7.060;2023-01-20T06:40:49;7.72;;;4.82;;
53781;SDS011;39692;53.114;7.060;2023-01-20T06:43:16;7.78;;;3.40;;
53781;SDS011;39692;53.114;7.060;2023-01-20T06:45:42;6.30;;;3.55;;
53781;SDS011;39692;53.114;7.060;2023-01-20T06:48:08;7.22;;;3.92;;
53781;SDS011;39692;53.114;7.060;2023-01-20T06:50:34;6.07;;;3.78;;
53781;SDS011;39692;53.114;7.060;2023-01-20T06:53:00;7.22;;;4.10;;
53781;SDS011;39692;53.114;7.060;2023-01-20T06:55:26;8.65;;;4.18;;
53781;SDS011;39692;53.114;7.060;2023-01-20T06:57:52;9.35;;;4.15;;
53781;SDS011;39692;53.114;7.060;2023-01-20T07:00:19;8.40;;;3.70;;
53781;SDS011;39692;53.114;7.060;2023-01-20T07:02:47;11.80;;;4.30;;
53781;SDS011;39692;53.114;7.060;2023-01-20T07:05:13;9.35;;;4.30;;
53781;SDS011;39692;53.114;7.060;2023-01-20T07:07:42;8.40;;;4.10;;
53781;SDS011;39692;53.114;7.060;2023-01-20T07:10:09;8.80;;;4.05;;
53781;SDS011;39692;53.114;7.060;2023-01-20T07:12:35;8.80;;;4.53;;
53781;SDS011;39692;53.114;7.060;2023-01-20T07:15:01;12.45;;;5.50;;
53781;SDS011;39692;53.114;7.060;2023-01-20T07:17:27;6.30;;;2.75;;
53781;SDS011;39692;53.114;7.060;2023-01-20T07:19:53;9.77;;;5.05;;
53781;SDS011;39692;53.114;7.060;2023-01-20T07:22:19;10.50;;;5.28;;
53781;SDS011;39692;53.114;7.060;2023-01-20T07:24:45;7.10;;;4.32;;
53781;SDS011;39692;53.114;7.060;2023-01-20T07:27:12;8.77;;;4.40;;
53781;SDS011;39692;53.114;7.060;2023-01-20T07:29:39;9.57;;;4.78;;
53781;SDS011;39692;53.114;7.060;2023-01-20T07:32:05;8.32;;;4.97;;
53781;SDS011;39692;53.114;7.060;2023-01-20T07:34:31;11.27;;;6.13;;
53781;SDS011;39692;53.114;7.060;2023-01-20T07:36:57;8.38;;;5.03;;
53781;SDS011;39692;53.114;7.060;2023-01-20T07:39:26;10.63;;;6.25;;
53781;SDS011;39692;53.114;7.060;2023-01-20T07:41:52;11.63;;;6.07;;
53781;SDS011;39692;53.114;7.060;2023-01-20T07:44:18;10.10;;;5.53;;
53781;SDS011;39692;53.114;7.060;2023-01-20T07:46:44;12.73;;;6.68;;
53781;SDS011;39692;53.114;7.060;2023-01-20T07:49:10;13.40;;;6.28;;
53781;SDS011;39692;53.114;7.060;2023-01-20T07:51:36;13.43;;;5.70;;
53781;SDS011;39692;53.114;7.060;2023-01-20T07:54:03;13.70;;;6.53;;
53781;SDS011;39692;53.114;7.060;2023-01-20T07:56:30;14.32;;;6.55;;
53781;SDS011;39692;53.114;7.060;2023-01-20T07:58:56;15.15;;;6.07;;
53781;SDS011;39692;53.114;7.060;2023-01-20T08:01:23;16.35;;;7.82;;
53781;SDS011;39692;53.114;7.060;2023-01-20T08:03:50;21.02;;;8.88;;
53781;SDS011;39692;53.114;7.060;2023-01-20T08:06:17;12.85;;;5.57;;
53781;SDS011;39692;53.114;7.060;2023-01-20T08:08:44;16.52;;;7.13;;
53781;SDS011;39692;53.114;7.060;2023-01-20T08:11:11;17.63;;;8.90;;
53781;SDS011;39692;53.114;7.060;2023-01-20T08:13:38;12.93;;;6.93;;
53781;SDS011;39692;53.114;7.060;2023-01-20T08:16:05;16.45;;;6.85;;
53781;SDS011;39692;53.114;7.060;2023-01-20T08:18:32;17.85;;;7.35;;
53781;SDS011;39692;53.114;7.060;2023-01-20T08:20:59;12.85;;;6.55;;
53781;SDS011;39692;53.114;7.060;2023-01-20T08:23:26;11.27;;;6.57;;
53781;SDS011;39692;53.114;7.060;2023-01-20T08:25:58;12.02;;;6.35;;
53781;SDS011;39692;53.114;7.060;2023-01-20T08:28:26;14.30;;;7.70;;
53781;SDS011;39692;53.114;7.060;2023-01-20T08:30:52;17.83;;;7.63;;
53781;SDS011;39692;53.114;7.060;2023-01-20T08:33:18;8.88;;;5.30;;
53781;SDS011;39692;53.114;7.060;2023-01-20T08:35:45;12.10;;;8.10;;
53781;SDS011;39692;53.114;7.060;2023-01-20T08:38:11;14.32;;;7.45;;
53781;SDS011;39692;53.114;7.060;2023-01-20T08:40:40;16.08;;;7.93;;
53781;SDS011;39692;53.114;7.060;2023-01-20T08:43:06;16.15;;;7.75;;
53781;SDS011;39692;53.114;7.060;2023-01-20T08:45:32;15.48;;;7.80;;
53781;SDS011;39692;53.114;7.060;2023-01-20T08:47:58;14.65;;;7.63;;
53781;SDS011;39692;53.114;7.060;2023-01-20T08:50:24;18.23;;;8.55;;
53781;SDS011;39692;53.114;7.060;2023-01-20T08:52:50;18.20;;;9.05;;
53781;SDS011;39692;53.114;7.060;2023-01-20T08:55:16;16.63;;;8.13;;
53781;SDS011;39692;53.114;7.060;2023-01-20T08:57:43;25.15;;;9.02;;
53781;SDS011;39692;53.114;7.060;2023-01-20T09:00:10;17.67;;;8.65;;
53781;SDS011;39692;53.114;7.060;2023-01-20T09:02:37;18.52;;;8.73;;
53781;SDS011;39692;53.114;7.060;2023-01-20T09:05:04;17.83;;;8.02;;
53781;SDS011;39692;53.114;7.060;2023-01-20T09:07:32;23.00;;;9.43;;
53781;SDS011;39692;53.114;7.060;2023-01-20T09:09:58;14.90;;;7.25;;
53781;SDS011;39692;53.114;7.060;2023-01-20T09:12:24;20.77;;;9.80;;
53781;SDS011;39692;53.114;7.060;2023-01-20T09:14:50;17.95;;;8.90;;
53781;SDS011;39692;53.114;7.060;2023-01-20T09:17:16;15.77;;;7.72;;
53781;SDS011;39692;53.114;7.060;2023-01-20T09:19:42;15.88;;;8.38;;
53781;SDS011;39692;53.114;7.060;2023-01-20T09:22:09;16.83;;;8.35;;
53781;SDS011;39692;53.114;7.060;2023-01-20T09:24:35;15.82;;;7.45;;
53781;SDS011;39692;53.114;7.060;2023-01-20T09:27:01;13.45;;;7.28;;
53781;SDS011;39692;53.114;7.060;2023-01-20T09:29:27;20.67;;;9.48;;
53781;SDS011;39692;53.114;7.060;2023-01-20T09:31:53;16.27;;;8.63;;
53781;SDS011;39692;53.114;7.060;2023-01-20T09:34:24;18.23;;;9.20;;
53781;SDS011;39692;53.114;7.060;2023-01-20T09:36:57;13.13;;;6.38;;
53781;SDS011;39692;53.114;7.060;2023-01-20T09:39:42;12.05;;;6.13;;
53781;SDS011;39692;53.114;7.060;2023-01-20T09:42:31;15.95;;;8.10;;
53781;SDS011;39692;53.114;7.060;2023-01-20T09:45:28;13.73;;;8.68;;
53781;SDS011;39692;53.114;7.060;2023-01-20T09:48:01;16.40;;;7.90;;
53781;SDS011;39692;53.114;7.060;2023-01-20T09:50:32;16.05;;;8.35;;
53781;SDS011;39692;53.114;7.060;2023-01-20T09:55:57;22.15;;;9.82;;
53781;SDS011;39692;53.114;7.060;2023-01-20T10:06:06;16.55;;;7.03;;
53781;SDS011;39692;53.114;7.060;2023-01-20T10:11:40;10.63;;;5.68;;
53781;SDS011;39692;53.114;7.060;2023-01-20T10:19:09;19.83;;;8.43;;
53781;SDS011;39692;53.114;7.060;2023-01-20T10:21:39;20.00;;;9.77;;
53781;SDS011;39692;53.114;7.060;2023-01-20T10:24:08;19.27;;;8.35;;
53781;SDS011;39692;53.114;7.060;2023-01-20T10:26:43;15.75;;;7.65;;
53781;SDS011;39692;53.114;7.060;2023-01-20T10:29:12;16.40;;;7.80;;
53781;SDS011;39692;53.114;7.060;2023-01-20T10:31:45;16.92;;;9.38;;
53781;SDS011;39692;53.114;7.060;2023-01-20T10:34:17;17.50;;;7.88;;
53781;SDS011;39692;53.114;7.060;2023-01-20T10:36:45;15.32;;;8.00;;
53781;SDS011;39692;53.114;7.060;2023-01-20T10:39:33;16.83;;;8.40;;
53781;SDS011;39692;53.114;7.060;2023-01-20T10:42:04;11.75;;;6.75;;
53781;SDS011;39692;53.114;7.060;2023-01-20T10:44:33;18.75;;;8.07;;
53781;SDS011;39692;53.114;7.060;2023-01-20T10:52:08;15.05;;;8.38;;
53781;SDS011;39692;53.114;7.060;2023-01-20T10:54:39;15.45;;;7.97;;
53781;SDS011;39692;53.114;7.060;2023-01-20T10:57:09;17.85;;;7.70;;
53781;SDS011;39692;53.114;7.060;2023-01-20T10:59:50;14.50;;;7.50;;
53781;SDS011;39692;53.114;7.060;2023-01-20T11:04:55;17.00;;;8.52;;
53781;SDS011;39692;53.114;7.060;2023-01-20T11:07:23;11.15;;;5.75;;
53781;SDS011;39692;53.114;7.060;2023-01-20T11:09:49;17.30;;;7.40;;
53781;SDS011;39692;53.114;7.060;2023-01-20T11:12:26;16.08;;;7.82;;
53781;SDS011;39692;53.114;7.060;2023-01-20T11:14:53;13.55;;;6.88;;
53781;SDS011;39692;53.114;7.060;2023-01-20T11:17:20;18.60;;;8.80;;
53781;SDS011;39692;53.114;7.060;2023-01-20T11:19:51;18.95;;;7.93;;
53781;SDS011;39692;53.114;7.060;2023-01-20T11:22:22;15.63;;;8.63;;
53781;SDS011;39692;53.114;7.060;2023-01-20T11:24:52;14.68;;;8.13;;
53781;SDS011;39692;53.114;7.060;2023-01-20T11:27:19;18.13;;;7.90;;
53781;SDS011;39692;53.114;7.060;2023-01-20T11:29:50;17.10;;;9.05;;
53781;SDS011;39692;53.114;7.060;2023-01-20T11:32:27;17.50;;;8.43;;
53781;SDS011;39692;53.114;7.060;2023-01-20T11:34:54;20.02;;;9.63;;
53781;SDS011;39692;53.114;7.060;2023-01-20T11:37:24;17.88;;;7.07;;
53781;SDS011;39692;53.114;7.060;2023-01-20T11:42:23;19.92;;;8.30;;
53781;SDS011;39692;53.114;7.060;2023-01-20T11:44:51;16.85;;;8.73;;
53781;SDS011;39692;53.114;7.060;2023-01-20T11:47:21;17.48;;;8.35;;
53781;SDS011;39692;53.114;7.060;2023-01-20T11:52:42;14.90;;;8.15;;
53781;SDS011;39692;53.114;7.060;2023-01-20T11:57:37;15.00;;;8.05;;
53781;SDS011;39692;53.114;7.060;2023-01-20T12:00:25;17.27;;;8.60;;
53781;SDS011;39692;53.114;7.060;2023-01-20T12:05:28;15.57;;;7.88;;
53781;SDS011;39692;53.114;7.060;2023-01-20T12:07:57;19.88;;;9.38;;
53781;SDS011;39692;53.114;7.060;2023-01-20T12:10:27;12.95;;;7.03;;
53781;SDS011;39692;53.114;7.060;2023-01-20T12:13:02;14.95;;;8.82;;
53781;SDS011;39692;53.114;7.060;2023-01-20T12:15:30;17.40;;;7.07;;
53781;SDS011;39692;53.114;7.060;2023-01-20T12:18:58;13.80;;;6.43;;
53781;SDS011;39692;53.114;7.060;2023-01-20T12:21:14;16.55;;;8.35;;
53781;SDS011;39692;53.114;7.060;2023-01-20T12:26:10;16.30;;;7.22;;
53781;SDS011;39692;53.114;7.060;2023-01-20T12:28:39;17.08;;;7.78;;
53781;SDS011;39692;53.114;7.060;2023-01-20T12:31:06;15.63;;;8.23;;
53781;SDS011;39692;53.114;7.060;2023-01-20T12:33:36;12.63;;;6.45;;
53781;SDS011;39692;53.114;7.060;2023-01-20T12:41:41;19.98;;;8.02;;
53781;SDS011;39692;53.114;7.060;2023-01-20T12:54:58;13.15;;;7.00;;
53781;SDS011;39692;53.114;7.060;2023-01-20T13:00:02;18.65;;;9.05;;
53781;SDS011;39692;53.114;7.060;2023-01-20T13:13:56;16.48;;;8.32;;
53781;SDS011;39692;53.114;7.060;2023-01-20T13:16:38;15.30;;;8.27;;
53781;SDS011;39692;53.114;7.060;2023-01-20T13:19:13;23.33;;;9.20;;
53781;SDS011;39692;53.114;7.060;2023-01-20T13:21:40;20.58;;;8.85;;
53781;SDS011;39692;53.114;7.060;2023-01-20T13:24:11;20.30;;;9.45;;
53781;SDS011;39692;53.114;7.060;2023-01-20T13:26:43;21.83;;;8.43;;
53781;SDS011;39692;53.114;7.060;2023-01-20T13:29:18;16.45;;;7.82;;
53781;SDS011;39692;53.114;7.060;2023-01-20T13:31:45;21.80;;;9.35;;
53781;SDS011;39692;53.114;7.060;2023-01-20T13:41:54;21.35;;;9.68;;
53781;SDS011;39692;53.114;7.060;2023-01-20T13:44:38;13.30;;;7.65;;
53781;SDS011;39692;53.114;7.060;2023-01-20T13:47:08;20.30;;;9.52;;
53781;SDS011;39692;53.114;7.060;2023-01-20T13:52:06;23.63;;;12.23;;
53781;SDS011;39692;53.114;7.060;2023-01-20T13:54:36;18.13;;;10.60;;
53781;SDS011;39692;53.114;7.060;2023-01-20T13:59:48;22.33;;;11.25;;
53781;SDS011;39692;53.114;7.060;2023-01-20T14:02:18;20.67;;;11.18;;
53781;SDS011;39692;53.114;7.060;2023-01-20T14:04:44;18.85;;;10.10;;
53781;SDS011;39692;53.114;7.060;2023-01-20T14:07:23;22.65;;;10.32;;
53781;SDS011;39692;53.114;7.060;2023-01-20T14:09:50;24.42;;;11.45;;
53781;SDS011;39692;53.114;7.060;2023-01-20T14:12:16;19.90;;;10.38;;
53781;SDS011;39692;53.114;7.060;2023-01-20T14:14:42;21.30;;;11.07;;
53781;SDS011;39692;53.114;7.060;2023-01-20T14:17:21;21.55;;;11.23;;
53781;SDS011;39692;53.114;7.060;2023-01-20T14:19:52;29.15;;;12.88;;
53781;SDS011;39692;53.114;7.060;2023-01-20T14:22:28;21.40;;;12.55;;
53781;SDS011;39692;53.114;7.060;2023-01-20T14:24:56;20.90;;;9.93;;
53781;SDS011;39692;53.114;7.060;2023-01-20T14:27:30;22.15;;;10.25;;
53781;SDS011;39692;53.114;7.060;2023-01-20T14:32:40;24.40;;;10.25;;
53781;SDS011;39692;53.114;7.060;2023-01-20T14:35:14;24.08;;;11.15;;
53781;SDS011;39692;53.114;7.060;2023-01-20T14:37:41;19.50;;;9.75;;
53781;SDS011;39692;53.114;7.060;2023-01-20T14:42:33;15.77;;;8.65;;
53781;SDS011;39692;53.114;7.060;2023-01-20T14:45:00;21.17;;;9.88;;
53781;SDS011;39692;53.114;7.060;2023-01-20T14:47:26;19.85;;;9.40;;
53781;SDS011;39692;53.114;7.060;2023-01-20T14:49:53;19.52;;;9.88;;
53781;SDS011;39692;53.114;7.060;2023-01-20T14:54:46;19.10;;;9.15;;
53781;SDS011;39692;53.114;7.060;2023-01-20T14:57:17;18.98;;;9.43;;
53781;SDS011;39692;53.114;7.060;2023-01-20T14:59:44;16.65;;;9.20;;
53781;SDS011;39692;53.114;7.060;2023-01-20T15:02:20;15.73;;;8.70;;
53781;SDS011;39692;53.114;7.060;2023-01-20T15:04:49;16.98;;;8.57;;
53781;SDS011;39692;53.114;7.060;2023-01-20T15:07:17;19.52;;;8.88;;
53781;SDS011;39692;53.114;7.060;2023-01-20T15:09:49;20.08;;;8.55;;
53781;SDS011;39692;53.114;7.060;2023-01-20T15:15:43;21.52;;;10.68;;
53781;SDS011;39692;53.114;7.060;2023-01-20T15:18:03;17.67;;;9.90;;
53781;SDS011;39692;53.114;7.060;2023-01-20T15:20:32;19.13;;;7.82;;
53781;SDS011;39692;53.114;7.060;2023-01-20T15:22:59;15.57;;;9.77;;
53781;SDS011;39692;53.114;7.060;2023-01-20T15:25:26;23.25;;;9.23;;
53781;SDS011;39692;53.114;7.060;2023-01-20T15:27:53;21.80;;;10.73;;
53781;SDS011;39692;53.114;7.060;2023-01-20T15:30:20;19.42;;;8.18;;
53781;SDS011;39692;53.114;7.060;2023-01-20T15:32:52;15.52;;;8.95;;
53781;SDS011;39692;53.114;7.060;2023-01-20T15:35:20;16.27;;;9.07;;
53781;SDS011;39692;53.114;7.060;2023-01-20T15:37:53;19.33;;;8.88;;
53781;SDS011;39692;53.114;7.060;2023-01-20T15:40:21;15.02;;;7.20;;
53781;SDS011;39692;53.114;7.060;2023-01-20T15:42:47;18.70;;;8.95;;
53781;SDS011;39692;53.114;7.060;2023-01-20T15:45:14;23.02;;;9.80;;
53781;SDS011;39692;53.114;7.060;2023-01-20T15:47:40;15.32;;;8.05;;
53781;SDS011;39692;53.114;7.060;2023-01-20T15:50:14;16.40;;;7.55;;
53781;SDS011;39692;53.114;7.060;2023-01-20T15:52:40;18.50;;;9.60;;
53781;SDS011;39692;53.114;7.060;2023-01-20T15:55:07;15.50;;;7.90;;
53781;SDS011;39692;53.114;7.060;2023-01-20T15:57:33;20.77;;;9.43;;
53781;SDS011;39692;53.114;7.060;2023-01-20T15:59:59;15.50;;;8.40;;
53781;SDS011;39692;53.114;7.060;2023-01-20T16:02:25;19.85;;;9.50;;
53781;SDS011;39692;53.114;7.060;2023-01-20T16:04:51;18.70;;;8.35;;
53781;SDS011;39692;53.114;7.060;2023-01-20T16:07:18;17.63;;;8.00;;
53781;SDS011;39692;53.114;7.060;2023-01-20T16:09:44;14.23;;;7.82;;
53781;SDS011;39692;53.114;7.060;2023-01-20T16:12:14;15.95;;;7.35;;
53781;SDS011;39692;53.114;7.060;2023-01-20T16:14:41;15.50;;;7.45;;
53781;SDS011;39692;53.114;7.060;2023-01-20T16:17:11;18.83;;;8.85;;
53781;SDS011;39692;53.114;7.060;2023-01-20T16:19:38;15.25;;;8.00;;
53781;SDS011;39692;53.114;7.060;2023-01-20T16:22:05;12.23;;;6.53;;
53781;SDS011;39692;53.114;7.060;2023-01-20T16:24:31;15.85;;;7.68;;
53781;SDS011;39692;53.114;7.060;2023-01-20T16:26:57;18.85;;;8.90;;
53781;SDS011;39692;53.114;7.060;2023-01-20T16:29:23;13.43;;;7.50;;
53781;SDS011;39692;53.114;7.060;2023-01-20T16:31:49;17.65;;;8.25;;
53781;SDS011;39692;53.114;7.060;2023-01-20T16:34:15;15.73;;;6.97;;
53781;SDS011;39692;53.114;7.060;2023-01-20T16:36:41;12.80;;;7.45;;
53781;SDS011;39692;53.114;7.060;2023-01-20T16:39:08;15.68;;;7.80;;
53781;SDS011;39692;53.114;7.060;2023-01-20T16:41:35;19.67;;;8.48;;